Time;durP1;ratioP1;P1;durP2;ratioP2;P2;SDS_P1;SDS_P2;PMS_P1;PMS_P2;Temp;Humidity;BMP_temperature;BMP_pressure;BME280_temperature;BME280_humidity;BME280_pressure;Samples;Min_cycle;Max_cycle;Signal;HPM_P1;HPM_P2
2022/09/16 00:01:18;;;;;;;8.60;4.22;;;15.50;99.90;;;;;;5054231;28;20029;-84
2022/09/16 00:03:44;;;;;;;10.02;4.82;;;15.40;99.90;;;;;;5051743;28;20115;-83
2022/09/16 00:06:18;;;;;;;8.63;4.82;;;15.30;99.90;;;;;;5064894;28;20040;-82
2022/09/16 00:08:44;;;;;;;10.15;4.65;;;;;;;;;;5068092;28;20371;-82
2022/09/16 00:11:10;;;;;;;8.82;4.35;;;;;;;;;;5069764;28;21028;-82
2022/09/16 00:13:36;;;;;;;7.20;4.13;;;15.50;99.90;;;;;;5066261;28;20040;-82
2022/09/16 00:16:07;;;;;;;7.05;3.95;;;15.60;99.90;;;;;;5070909;28;20033;-82
2022/09/16 00:18:33;;;;;;;6.38;3.72;;;;;;;;;;5044238;28;20601;-82
2022/09/16 00:20:59;;;;;;;6.50;4.28;;;;;;;;;;5049756;28;20067;-82
2022/09/16 00:23:25;;;;;;;8.07;4.10;;;15.70;99.90;;;;;;5056156;28;20062;-83
2022/09/16 00:25:52;;;;;;;8.60;4.18;;;15.60;99.90;;;;;;5069427;28;20028;-83
2022/09/16 00:28:22;;;;;;;14.18;4.18;;;15.70;99.90;;;;;;5070339;28;20012;-84
2022/09/16 00:30:49;;;;;;;6.93;4.10;;;16.30;99.90;;;;;;5054116;28;20040;-82
2022/09/16 00:33:14;;;;;;;7.97;4.57;;;15.70;99.90;;;;;;5056115;28;20033;-83
2022/09/16 00:35:40;;;;;;;11.13;4.68;;;16.00;99.90;;;;;;5054344;28;20027;-83
2022/09/16 00:38:06;;;;;;;9.25;4.07;;;17.30;99.90;;;;;;5055976;28;20070;-81
2022/09/16 00:40:32;;;;;;;8.18;4.50;;;15.70;99.90;;;;;;5046644;28;20032;-85
2022/09/16 00:42:59;;;;;;;7.80;4.80;;;15.70;99.90;;;;;;5051814;28;20041;-84
2022/09/16 00:45:30;;;;;;;8.52;4.28;;;15.70;99.90;;;;;;5075820;28;20031;-82
2022/09/16 00:48:00;;;;;;;8.68;4.18;;;15.80;99.90;;;;;;5047491;28;20516;-84
2022/09/16 00:50:37;;;;;;;;;;;17.70;99.90;;;;;;5047592;28;20041;-81
2022/09/16 00:53:06;;;;;;;7.95;4.07;;;15.60;99.90;;;;;;5071885;28;19979;-84
2022/09/16 00:55:36;;;;;;;7.72;4.40;;;15.70;99.90;;;;;;5058244;28;20032;-83
2022/09/16 00:58:34;;;;;;;8.03;4.30;;;16.00;99.90;;;;;;5068422;28;20067;-84
2022/09/16 01:01:01;;;;;;;6.95;4.15;;;15.60;99.90;;;;;;5059373;28;20283;-82
2022/09/16 01:03:29;;;;;;;9.32;4.60;;;15.60;99.90;;;;;;5066885;28;20097;-82
2022/09/16 01:05:54;;;;;;;6.30;4.50;;;15.60;99.90;;;;;;5048112;28;20120;-84
2022/09/16 01:08:20;;;;;;;12.85;5.50;;;15.60;99.90;;;;;;5046912;28;21689;-84
2022/09/16 01:10:45;;;;;;;11.45;5.05;;;16.20;99.90;;;;;;5052721;28;20040;-83
2022/09/16 01:13:14;;;;;;;7.97;4.18;;;15.60;99.90;;;;;;5051944;28;20040;-84
2022/09/16 01:15:59;;;;;;;9.20;4.88;;;16.40;99.90;;;;;;5065343;28;20020;-82
2022/09/16 01:18:27;;;;;;;7.10;4.40;;;17.10;99.90;;;;;;5062071;28;20359;-85
2022/09/16 01:21:24;;;;;;;7.55;4.25;;;15.70;99.90;;;;;;5068551;28;20020;-87
2022/09/16 01:23:55;;;;;;;8.70;4.43;;;15.70;99.90;;;;;;5055431;28;20090;-82
2022/09/16 01:27:06;;;;;;;8.18;4.38;;;15.70;99.90;;;;;;5070222;28;20029;-85
2022/09/16 01:30:03;;;;;;;5.63;4.00;;;15.70;99.90;;;;;;5033073;28;20040;-82
2022/09/16 01:32:54;;;;;;;14.25;4.25;;;15.60;99.90;;;;;;5047235;28;20024;-86
2022/09/16 01:35:52;;;;;;;6.22;4.05;;;16.30;99.90;;;;;;5034642;28;20029;-85
2022/09/16 01:38:43;;;;;;;8.50;4.10;;;15.60;99.90;;;;;;5050642;28;20016;-83
2022/09/16 01:41:30;;;;;;;6.47;4.07;;;15.60;99.90;;;;;;5068292;28;20029;-79
2022/09/16 01:43:59;;;;;;;9.75;3.72;;;15.60;99.90;;;;;;5070011;28;20509;-82
2022/09/16 01:46:32;;;;;;;8.60;4.20;;;15.60;99.90;;;;;;5061220;28;20466;-81
2022/09/16 01:49:46;;;;;;;6.68;3.90;;;15.60;99.90;;;;;;5048753;28;20033;-85
2022/09/16 01:52:45;;;;;;;11.23;3.65;;;15.70;99.90;;;;;;5012541;28;20577;-80
2022/09/16 01:55:24;;;;;;;8.30;3.47;;;15.70;99.90;;;;;;5064958;28;20029;-80
2022/09/16 01:57:58;;;;;;;6.05;3.58;;;16.90;99.90;;;;;;5049916;28;20612;-83
2022/09/16 02:00:23;;;;;;;11.38;4.45;;;15.60;99.90;;;;;;5045031;28;20020;-84
2022/09/16 02:02:52;;;;;;;12.35;3.88;;;16.00;99.90;;;;;;5046011;28;20162;-83
2022/09/16 02:05:25;;;;;;;6.13;3.38;;;15.70;99.90;;;;;;5065073;28;20033;-83
2022/09/16 02:07:56;;;;;;;8.40;3.70;;;15.70;99.90;;;;;;5068419;28;20288;-87
2022/09/16 02:10:30;;;;;;;10.95;3.83;;;15.60;99.90;;;;;;5066702;28;20035;-84
2022/09/16 02:13:01;;;;;;;6.82;3.63;;;15.60;99.90;;;;;;5071390;28;20033;-81
2022/09/16 02:15:31;;;;;;;6.22;3.55;;;15.70;99.90;;;;;;5065951;28;20456;-84
2022/09/16 02:18:05;;;;;;;7.15;3.38;;;17.30;99.90;;;;;;5045417;28;20024;-81
2022/09/16 02:20:35;;;;;;;6.40;3.47;;;15.60;99.90;;;;;;5068752;28;20040;-82
2022/09/16 02:23:14;;;;;;;6.47;3.00;;;15.60;99.90;;;;;;5054081;28;20032;-83
2022/09/16 02:25:42;;;;;;;5.63;3.50;;;15.60;99.90;;;;;;5050096;28;20036;-82
2022/09/16 02:28:15;;;;;;;10.73;3.40;;;16.80;99.90;;;;;;5048771;28;20032;-85
2022/09/16 02:30:44;;;;;;;8.85;3.60;;;16.50;99.90;;;;;;5066879;28;20032;-82
2022/09/16 02:33:12;;;;;;;5.45;3.38;;;15.60;99.90;;;;;;5043704;28;20044;-81
2022/09/16 02:35:40;;;;;;;6.70;3.60;;;15.60;99.90;;;;;;5066033;28;20029;-83
2022/09/16 02:38:15;;;;;;;10.68;3.20;;;15.60;99.90;;;;;;5049793;28;20035;-82
2022/09/16 02:40:51;;;;;;;9.77;3.50;;;15.60;99.90;;;;;;5043167;28;20026;-82
2022/09/16 02:43:17;;;;;;;10.15;4.00;;;15.70;99.90;;;;;;5064530;28;20039;-82
2022/09/16 02:46:15;;;;;;;5.88;3.28;;;17.00;99.90;;;;;;5052141;28;20032;-85
2022/09/16 02:48:47;;;;;;;7.80;3.47;;;15.70;99.90;;;;;;5069723;28;20036;-82
2022/09/16 02:51:17;;;;;;;7.20;3.00;;;15.70;99.90;;;;;;5068897;28;20024;-83
2022/09/16 02:53:53;;;;;;;6.28;3.15;;;15.60;99.90;;;;;;5052337;28;20033;-83
2022/09/16 02:56:30;;;;;;;6.82;3.53;;;15.60;99.90;;;;;;5067034;28;20124;-79
2022/09/16 02:58:56;;;;;;;7.65;3.47;;;17.00;99.90;;;;;;5046831;28;20033;-85
2022/09/16 03:01:23;;;;;;;6.93;3.13;;;15.80;99.90;;;;;;5053030;28;20064;-82
2022/09/16 03:03:49;;;;;;;7.55;3.30;;;15.50;99.90;;;;;;5050495;28;20081;-84
2022/09/16 03:06:21;;;;;;;9.15;3.28;;;15.50;99.90;;;;;;5057094;28;20032;-84
2022/09/16 03:08:48;;;;;;;7.10;3.58;;;18.20;99.90;;;;;;5058791;28;20029;-85
2022/09/16 03:11:41;;;;;;;6.97;3.17;;;16.10;99.90;;;;;;5059356;28;20042;-85
2022/09/16 03:14:25;;;;;;;10.05;3.53;;;15.40;99.90;;;;;;5069024;28;20028;-81
2022/09/16 03:17:07;;;;;;;7.00;3.05;;;15.40;99.90;;;;;;5048820;28;20170;-82
2022/09/16 03:19:59;;;;;;;9.30;3.20;;;15.40;99.90;;;;;;5041086;28;20101;-82
2022/09/16 03:23:02;;;;;;;7.63;3.50;;;15.40;99.90;;;;;;5043530;28;20032;-83
2022/09/16 03:25:42;;;;;;;5.53;3.35;;;15.40;99.90;;;;;;5052030;28;20025;-82
2022/09/16 03:28:16;;;;;;;8.30;3.10;;;15.40;99.90;;;;;;5067914;28;20025;-83
2022/09/16 03:31:00;;;;;;;6.68;3.28;;;15.40;99.90;;;;;;5051787;28;20382;-82
2022/09/16 03:33:33;;;;;;;6.03;3.50;;;15.40;99.90;;;;;;5054348;28;20062;-83
2022/09/16 03:36:04;;;;;;;8.40;3.20;;;15.40;99.90;;;;;;5055344;28;20029;-81
2022/09/16 03:38:31;;;;;;;;;;;15.40;99.90;;;;;;5039205;28;20029;-82
2022/09/16 03:40:57;;;;;;;6.80;3.08;;;15.70;99.90;;;;;;5053868;28;19962;-83
2022/09/16 03:43:23;;;;;;;6.15;3.35;;;15.30;99.90;;;;;;5052375;28;20036;-81
2022/09/16 03:45:50;;;;;;;7.07;3.33;;;15.40;99.90;;;;;;5068267;28;20024;-83
2022/09/16 03:48:16;;;;;;;7.78;3.40;;;15.50;99.90;;;;;;5049340;28;20029;-82
2022/09/16 03:50:41;;;;;;;7.13;3.30;;;17.80;99.90;;;;;;5048143;28;20040;-82
2022/09/16 03:53:07;;;;;;;5.57;3.10;;;15.30;99.90;;;;;;5053244;28;20098;-83
2022/09/16 03:55:33;;;;;;;9.77;3.33;;;15.30;99.90;;;;;;5053636;28;20021;-83
2022/09/16 03:57:58;;;;;;;6.38;3.30;;;16.20;99.90;;;;;;5052823;28;20028;-83
2022/09/16 04:00:24;;;;;;;6.28;3.05;;;;;;;;;;5052138;28;20088;-82
2022/09/16 04:02:50;;;;;;;8.55;3.20;;;15.40;99.90;;;;;;5071527;28;20031;-84
2022/09/16 04:05:16;;;;;;;5.63;2.85;;;15.30;99.90;;;;;;5069811;28;20032;-82
2022/09/16 04:07:41;;;;;;;8.55;3.55;;;15.40;99.90;;;;;;5040933;28;20094;-81
2022/09/16 04:10:10;;;;;;;8.60;3.13;;;15.30;99.90;;;;;;5073697;28;20055;-83
2022/09/16 04:12:36;;;;;;;5.85;3.00;;;15.30;99.90;;;;;;5061141;28;20501;-83
2022/09/16 04:15:01;;;;;;;8.02;3.03;;;15.30;99.90;;;;;;5076556;28;20108;-82
2022/09/16 04:17:30;;;;;;;8.57;2.95;;;15.30;99.90;;;;;;5063225;28;20062;-83
2022/09/16 04:19:56;;;;;;;11.00;3.15;;;17.60;99.90;;;;;;5068548;28;20205;-81
2022/09/16 04:22:21;;;;;;;7.60;3.60;;;15.60;99.90;;;;;;5052149;28;20123;-83
2022/09/16 04:24:47;;;;;;;7.85;3.50;;;15.20;99.90;;;;;;5070241;28;20021;-83
2022/09/16 04:27:12;;;;;;;6.32;3.20;;;15.60;99.90;;;;;;5075649;28;20028;-82
2022/09/16 04:29:38;;;;;;;8.55;3.00;;;15.30;99.90;;;;;;5073345;28;20417;-84
2022/09/16 04:32:04;;;;;;;5.40;2.92;;;15.60;99.90;;;;;;5057125;28;20043;-82
2022/09/16 04:34:31;;;;;;;10.02;3.30;;;15.10;99.90;;;;;;5046430;28;20358;-79
2022/09/16 04:36:57;;;;;;;7.15;3.53;;;15.10;99.90;;;;;;5076248;28;20025;-81
2022/09/16 04:39:23;;;;;;;6.40;3.40;;;15.20;99.90;;;;;;5073234;28;20123;-83
2022/09/16 04:41:48;;;;;;;7.05;2.85;;;15.20;99.90;;;;;;5050007;28;20211;-84
2022/09/16 04:44:14;;;;;;;4.13;2.78;;;15.20;99.90;;;;;;5060283;28;20047;-82
2022/09/16 04:46:39;;;;;;;4.75;2.85;;;15.20;99.90;;;;;;5074285;28;20520;-82
2022/09/16 04:49:05;;;;;;;6.60;2.85;;;15.20;99.90;;;;;;5056654;28;20040;-81
2022/09/16 04:51:31;;;;;;;6.90;2.85;;;15.70;99.90;;;;;;5077344;28;20029;-81
2022/09/16 04:53:58;;;;;;;6.47;2.53;;;15.40;99.90;;;;;;5073525;28;20035;-83
2022/09/16 04:56:26;;;;;;;7.53;2.80;;;16.40;99.90;;;;;;5061343;28;20032;-81
2022/09/16 04:58:54;;;;;;;6.20;2.92;;;16.30;99.90;;;;;;5046918;28;20028;-81
2022/09/16 05:01:26;;;;;;;6.53;2.60;;;15.30;99.90;;;;;;5047945;28;20032;-79
2022/09/16 05:03:54;;;;;;;7.88;2.90;;;15.10;99.90;;;;;;5049657;28;20371;-81
2022/09/16 05:06:21;;;;;;;7.10;2.67;;;15.10;99.90;;;;;;5047404;28;20028;-82
2022/09/16 05:08:49;;;;;;;6.20;2.35;;;15.60;99.90;;;;;;5051301;28;20485;-82
2022/09/16 05:11:20;;;;;;;4.15;2.15;;;15.20;99.90;;;;;;5049725;28;20032;-83
2022/09/16 05:13:46;;;;;;;6.68;2.28;;;15.20;99.90;;;;;;5061277;28;20090;-82
2022/09/16 05:16:20;;;;;;;4.18;2.08;;;15.20;99.90;;;;;;5048343;28;20494;-83
2022/09/16 05:18:52;;;;;;;5.95;2.30;;;15.10;99.90;;;;;;5070232;28;20081;-79
2022/09/16 05:21:20;;;;;;;6.57;2.25;;;15.10;99.90;;;;;;5048818;28;20039;-85
2022/09/16 05:23:46;;;;;;;9.90;1.88;;;16.10;99.90;;;;;;5050550;28;20036;-82
2022/09/16 05:26:23;;;;;;;9.73;2.30;;;15.60;99.90;;;;;;5061696;28;20032;-82
2022/09/16 05:28:50;;;;;;;5.90;1.88;;;17.40;99.90;;;;;;5062555;28;20025;-82
2022/09/16 05:31:25;;;;;;;6.53;2.00;;;15.20;99.90;;;;;;5053678;28;20029;-81
2022/09/16 05:33:59;;;;;;;7.35;2.60;;;15.20;99.90;;;;;;5054413;28;20027;-82
2022/09/16 05:36:27;;;;;;;5.97;2.10;;;15.10;99.90;;;;;;5052916;28;20027;-82
2022/09/16 05:38:52;;;;;;;9.35;2.55;;;15.10;99.90;;;;;;5047980;28;20043;-88
2022/09/16 05:41:18;;;;;;;11.25;3.00;;;15.10;99.90;;;;;;5042959;28;20025;-81
2022/09/16 05:43:44;;;;;;;8.15;2.58;;;15.10;99.90;;;;;;5051604;28;20044;-83
2022/09/16 05:46:16;;;;;;;6.32;2.15;;;17.20;99.90;;;;;;5068196;28;20031;-84
2022/09/16 05:48:42;;;;;;;6.82;2.30;;;15.50;99.90;;;;;;5049033;28;20056;-81
2022/09/16 05:51:08;;;;;;;10.20;2.30;;;15.10;99.90;;;;;;5051306;28;20031;-84
2022/09/16 05:53:34;;;;;;;7.35;2.40;;;;;;;;;;5051778;28;20494;-84
2022/09/16 05:56:07;;;;;;;7.13;2.28;;;15.10;99.90;;;;;;5065822;28;20117;-83
2022/09/16 05:58:34;;;;;;;5.82;1.98;;;15.10;99.90;;;;;;5070499;28;20036;-81
2022/09/16 06:01:05;;;;;;;4.05;1.90;;;15.20;99.90;;;;;;5060168;28;20426;-82
2022/09/16 06:03:32;;;;;;;4.10;2.22;;;16.30;99.90;;;;;;5071611;28;20494;-82
2022/09/16 06:06:05;;;;;;;6.13;2.17;;;17.10;99.90;;;;;;5056784;28;20500;-84
2022/09/16 06:08:32;;;;;;;7.93;1.90;;;16.60;99.90;;;;;;5071792;28;20028;-83
2022/09/16 06:11:06;;;;;;;10.13;2.30;;;15.20;99.90;;;;;;5049863;28;20032;-83
2022/09/16 06:13:32;;;;;;;5.63;1.88;;;15.20;99.90;;;;;;5052702;28;20252;-83
2022/09/16 06:15:58;;;;;;;6.95;2.03;;;;;;;;;;5052264;28;20020;-84
2022/09/16 06:18:26;;;;;;;7.93;2.47;;;15.20;99.90;;;;;;5047563;28;20031;-84
2022/09/16 06:20:51;;;;;;;6.53;2.53;;;15.10;99.90;;;;;;5049520;28;20024;-83
2022/09/16 06:23:18;;;;;;;5.97;1.85;;;15.10;99.90;;;;;;5053811;28;20025;-84
2022/09/16 06:25:45;;;;;;;7.60;1.85;;;15.10;99.90;;;;;;5072070;28;20036;-84
2022/09/16 06:28:11;;;;;;;7.60;2.10;;;15.10;99.90;;;;;;5049413;28;20032;-82
2022/09/16 06:30:38;;;;;;;7.45;2.20;;;15.10;99.90;;;;;;5073547;28;20067;-81
2022/09/16 06:33:04;;;;;;;6.93;2.20;;;;;;;;;;5064447;28;20149;-84
2022/09/16 06:35:30;;;;;;;9.27;2.10;;;15.10;99.90;;;;;;5047072;28;20024;-85
2022/09/16 06:37:56;;;;;;;8.20;1.90;;;15.20;99.90;;;;;;5071524;28;20048;-83
2022/09/16 06:40:21;;;;;;;13.15;3.17;;;15.20;99.90;;;;;;5054950;28;20028;-84
2022/09/16 06:42:47;;;;;;;3.83;1.58;;;15.30;99.90;;;;;;5065502;28;20549;-83
2022/09/16 06:45:13;;;;;;;5.40;2.13;;;15.30;99.90;;;;;;5049492;28;20096;-86
2022/09/16 06:47:38;;;;;;;7.20;2.20;;;15.30;99.90;;;;;;5075923;28;20059;-82
2022/09/16 06:50:04;;;;;;;13.65;3.40;;;15.40;99.90;;;;;;5049074;28;20032;-87
2022/09/16 06:52:31;;;;;;;8.20;1.73;;;15.50;99.90;;;;;;5057675;28;20489;-82
2022/09/16 06:54:57;;;;;;;5.00;1.60;;;15.60;99.90;;;;;;5057282;28;20032;-84
2022/09/16 06:57:23;;;;;;;5.85;1.70;;;;;;;;;;5059121;28;20013;-86
2022/09/16 06:59:50;;;;;;;7.22;2.25;;;15.70;99.90;;;;;;5071298;28;20377;-86
2022/09/16 07:02:16;;;;;;;5.30;1.77;;;15.70;99.90;;;;;;5052813;28;20119;-87
2022/09/16 07:04:41;;;;;;;8.15;1.83;;;15.70;99.90;;;;;;5062583;28;20107;-85
2022/09/16 07:07:07;;;;;;;8.45;1.70;;;15.50;99.90;;;;;;5058871;28;20060;-84
2022/09/16 07:09:33;;;;;;;7.55;1.88;;;15.60;99.90;;;;;;5048580;28;20028;-83
2022/09/16 07:11:59;;;;;;;5.75;1.75;;;15.70;99.90;;;;;;5044758;28;20037;-85
2022/09/16 07:14:26;;;;;;;5.13;2.13;;;15.70;99.90;;;;;;5072909;28;20036;-83
2022/09/16 07:16:51;;;;;;;5.60;1.73;;;15.80;99.90;;;;;;5030712;28;20498;-83
2022/09/16 07:19:17;;;;;;;6.20;1.70;;;;;;;;;;5049154;28;20104;-83
2022/09/16 07:21:44;;;;;;;8.18;2.10;;;;;;;;;;5046284;28;20033;-85
2022/09/16 07:24:12;;;;;;;8.88;2.00;;;15.80;99.90;;;;;;5057575;28;20037;-82
2022/09/16 07:26:39;;;;;;;5.78;1.75;;;15.80;99.90;;;;;;5065228;28;20024;-85
2022/09/16 07:29:06;;;;;;;4.93;1.40;;;15.90;99.90;;;;;;5058123;28;20032;-84
2022/09/16 07:31:35;;;;;;;6.47;2.10;;;16.00;99.90;;;;;;5057259;28;20040;-83
2022/09/16 07:34:01;;;;;;;4.75;1.70;;;16.00;99.90;;;;;;5074973;28;20025;-83
2022/09/16 07:36:30;;;;;;;4.95;1.88;;;16.00;99.90;;;;;;5075534;28;20029;-84
2022/09/16 07:38:57;;;;;;;3.78;1.30;;;16.00;99.90;;;;;;5051123;28;20022;-84
2022/09/16 07:41:25;;;;;;;5.72;1.50;;;15.90;99.90;;;;;;5055328;28;20055;-83
2022/09/16 07:43:53;;;;;;;7.05;1.52;;;16.00;99.90;;;;;;5060216;28;20116;-85
2022/09/16 07:46:19;;;;;;;7.40;1.70;;;16.00;99.90;;;;;;5071390;28;20033;-85
2022/09/16 07:48:46;;;;;;;4.57;1.40;;;18.70;99.90;;;;;;5076569;28;20104;-82
2022/09/16 07:51:15;;;;;;;6.65;1.63;;;16.00;99.90;;;;;;5055162;28;20051;-82
2022/09/16 07:53:41;;;;;;;4.82;1.20;;;16.00;99.90;;;;;;5077844;28;20498;-84
2022/09/16 07:56:07;;;;;;;6.35;1.70;;;;;;;;;;5052975;28;20053;-85
2022/09/16 07:58:33;;;;;;;6.85;1.50;;;;;;;;;;5062797;28;20096;-86
2022/09/16 08:00:59;;;;;;;5.55;1.33;;;;;;;;;;5059593;28;20079;-87
2022/09/16 08:03:25;;;;;;;6.15;1.35;;;;;;;;;;5057158;28;20043;-84
2022/09/16 08:05:51;;;;;;;4.70;1.23;;;;;;;;;;5062074;28;20494;-81
2022/09/16 08:08:17;;;;;;;5.15;1.23;;;16.20;99.90;;;;;;5070430;28;20089;-84
2022/09/16 08:10:43;;;;;;;7.72;1.45;;;;;;;;;;5056169;28;20509;-83
2022/09/16 08:13:09;;;;;;;6.90;1.30;;;;;;;;;;5072588;28;20036;-84
2022/09/16 08:15:35;;;;;;;5.18;1.65;;;;;;;;;;5054809;28;20024;-83
2022/09/16 08:18:02;;;;;;;6.60;1.63;;;;;;;;;;5051947;28;20111;-85
2022/09/16 08:20:28;;;;;;;6.53;1.50;;;;;;;;;;5076318;28;20025;-85
2022/09/16 08:22:53;;;;;;;4.30;1.20;;;17.40;99.90;;;;;;5071424;28;20557;-85
2022/09/16 08:25:19;;;;;;;3.80;1.17;;;17.60;99.90;;;;;;5071472;28;20123;-84
2022/09/16 08:27:45;;;;;;;5.18;1.27;;;17.90;99.90;;;;;;5055868;28;20040;-83
2022/09/16 08:30:11;;;;;;;6.88;1.38;;;19.30;99.90;;;;;;5060800;28;20103;-84
2022/09/16 08:32:36;;;;;;;5.07;0.90;;;18.00;99.90;;;;;;5060824;28;20028;-82
2022/09/16 08:35:02;;;;;;;3.22;1.00;;;18.00;99.90;;;;;;5055233;28;20073;-80
2022/09/16 08:37:28;;;;;;;5.53;1.27;;;18.30;99.90;;;;;;5058247;28;20047;-83
2022/09/16 08:39:54;;;;;;;8.80;1.23;;;;;;;;;;5077323;28;20027;-83
2022/09/16 08:42:32;;;;;;;5.30;1.15;;;17.70;99.90;;;;;;5056432;28;20117;-83
2022/09/16 08:45:28;;;;;;;6.28;1.27;;;17.60;99.90;;;;;;5061369;28;20036;-85
2022/09/16 08:48:19;;;;;;;6.13;1.10;;;17.50;99.90;;;;;;5056559;28;20041;-89
2022/09/16 08:50:47;;;;;;;3.30;1.20;;;17.50;99.90;;;;;;5055897;28;20028;-84
2022/09/16 08:53:42;;;;;;;4.15;0.90;;;17.40;99.90;;;;;;5059062;28;20016;-83
2022/09/16 08:56:19;;;;;;;5.07;1.00;;;17.50;99.90;;;;;;5060558;28;20021;-84
2022/09/16 08:58:47;;;;;;;4.40;1.30;;;17.50;99.90;;;;;;5055706;28;20048;-82
2022/09/16 09:01:26;;;;;;;5.22;1.20;;;18.90;99.90;;;;;;5056864;28;20021;-81
2022/09/16 09:03:51;;;;;;;7.50;2.13;;;17.40;99.90;;;;;;5058180;28;20021;-82
2022/09/16 09:06:38;;;;;;;5.72;1.05;;;17.40;99.90;;;;;;5059539;28;20035;-83
2022/09/16 09:09:26;;;;;;;5.75;1.05;;;17.40;99.90;;;;;;5076621;28;20028;-82
2022/09/16 09:12:33;;;;;;;6.82;1.40;;;17.60;99.40;;;;;;5071111;28;20174;-80
2022/09/16 09:15:35;;;;;;;4.60;1.25;;;18.10;98.80;;;;;;5023070;28;20060;-83
2022/09/16 09:18:05;;;;;;;3.30;0.90;;;18.10;98.20;;;;;;5061213;28;20486;-83
2022/09/16 09:21:00;;;;;;;5.05;1.10;;;18.50;97.30;;;;;;5056444;28;20021;-82
2022/09/16 09:23:26;;;;;;;4.72;1.17;;;;;;;;;;5059384;28;20033;-81
2022/09/16 09:26:03;;;;;;;4.20;1.17;;;18.60;96.00;;;;;;5078863;28;20084;-82
2022/09/16 09:28:57;;;;;;;6.55;1.60;;;18.60;95.50;;;;;;5052442;28;20496;-81
2022/09/16 09:31:23;;;;;;;4.25;1.00;;;;;;;;;;5075634;28;20059;-83
2022/09/16 09:34:14;;;;;;;7.93;1.48;;;18.10;96.70;;;;;;5056835;28;20033;-81
2022/09/16 09:37:01;;;;;;;5.05;1.25;;;18.10;97.20;;;;;;5075158;28;20086;-83
2022/09/16 09:39:27;;;;;;;6.75;2.05;;;;;;;;;;5067164;28;20059;-84
2022/09/16 09:42:01;;;;;;;6.50;1.30;;;18.30;96.60;;;;;;5056962;28;20025;-81
2022/09/16 09:44:39;;;;;;;7.07;1.67;;;18.40;96.90;;;;;;5053779;28;20025;-84
2022/09/16 09:47:11;;;;;;;5.90;1.27;;;18.30;96.90;;;;;;5072773;28;20037;-82
2022/09/16 09:49:55;;;;;;;5.72;1.48;;;18.50;96.60;;;;;;5060554;28;20028;-81
2022/09/16 09:52:32;;;;;;;4.93;1.20;;;18.60;96.50;;;;;;5059857;28;20122;-81
2022/09/16 09:55:29;;;;;;;12.82;1.77;;;18.70;95.70;;;;;;5055087;28;20033;-79
2022/09/16 09:58:22;;;;;;;8.35;1.42;;;18.70;96.40;;;;;;5051751;28;20048;-83
2022/09/16 10:00:48;;;;;;;4.80;1.25;;;18.80;96.10;;;;;;5052402;28;20546;-82
2022/09/16 10:03:17;;;;;;;6.97;1.40;;;18.60;95.10;;;;;;5069456;28;20064;-82
2022/09/16 10:05:45;;;;;;;6.00;1.27;;;18.70;94.30;;;;;;5073225;28;20036;-85
2022/09/16 10:08:19;;;;;;;9.52;1.30;;;18.70;94.20;;;;;;5055625;28;20027;-83
2022/09/16 10:10:57;;;;;;;6.18;1.75;;;18.80;94.20;;;;;;5059220;28;20029;-85
2022/09/16 10:13:25;;;;;;;5.25;1.48;;;18.80;94.80;;;;;;5053084;28;20039;-81
2022/09/16 10:15:54;;;;;;;6.68;1.35;;;18.90;94.90;;;;;;5051230;28;20025;-81
2022/09/16 10:18:28;;;;;;;5.95;1.58;;;19.10;95.20;;;;;;5050229;28;20031;-84
2022/09/16 10:21:00;;;;;;;4.30;1.30;;;19.30;94.60;;;;;;5050711;28;20028;-82
2022/09/16 10:23:26;;;;;;;5.68;1.52;;;;;;;;;;5072469;28;20036;-83
2022/09/16 10:26:06;;;;;;;5.20;1.35;;;19.20;94.00;;;;;;5046249;28;20028;-81
2022/09/16 10:28:32;;;;;;;4.30;2.00;;;19.20;94.50;;;;;;5057990;28;20024;-83
2022/09/16 10:30:59;;;;;;;5.47;1.65;;;19.40;94.30;;;;;;5052040;28;20087;-83
2022/09/16 10:33:33;;;;;;;6.18;1.40;;;19.50;94.40;;;;;;5071994;28;20083;-80
2022/09/16 10:36:04;;;;;;;5.03;1.58;;;19.80;93.40;;;;;;5048546;28;20090;-85
2022/09/16 10:38:37;;;;;;;5.88;1.83;;;19.90;93.10;;;;;;5063666;28;20031;-80
2022/09/16 10:41:13;;;;;;;3.67;1.27;;;20.10;92.60;;;;;;5048769;28;20024;-82
2022/09/16 10:43:47;;;;;;;4.38;1.30;;;21.40;92.60;;;;;;5059915;28;20102;-79
2022/09/16 10:46:15;;;;;;;5.43;1.40;;;19.70;92.40;;;;;;5068030;28;20024;-82
2022/09/16 10:48:42;;;;;;;7.72;1.35;;;19.70;92.10;;;;;;5051128;28;20032;-82
2022/09/16 10:51:23;;;;;;;7.47;1.40;;;19.10;92.80;;;;;;5069748;28;20024;-81
2022/09/16 10:54:01;;;;;;;5.68;1.20;;;19.10;92.90;;;;;;5070430;28;20059;-78
2022/09/16 10:56:30;;;;;;;4.50;1.20;;;18.70;93.50;;;;;;5069892;28;20051;-82
2022/09/16 10:59:12;;;;;;;7.70;1.60;;;18.70;93.90;;;;;;5073096;28;20037;-80
2022/09/16 11:02:03;;;;;;;6.07;2.38;;;18.40;93.90;;;;;;5055400;28;20024;-80
2022/09/16 11:04:53;;;;;;;2.92;1.20;;;18.50;93.80;;;;;;5069958;28;20300;-84
2022/09/16 11:07:33;;;;;;;9.63;1.70;;;18.50;93.80;;;;;;5050835;28;20031;-82
2022/09/16 11:10:08;;;;;;;3.55;1.10;;;18.50;94.20;;;;;;5068357;28;20039;-84
2022/09/16 11:13:07;;;;;;;4.03;1.00;;;18.40;93.60;;;;;;5067076;28;20033;-80
2022/09/16 11:15:58;;;;;;;4.47;1.13;;;18.40;93.70;;;;;;5068278;28;20131;-80
2022/09/16 11:18:45;;;;;;;2.90;0.90;;;18.40;94.00;;;;;;5053638;28;20024;-81
2022/09/16 11:21:11;;;;;;;2.45;1.08;;;;;;;;;;5053648;28;20021;-80
2022/09/16 11:23:51;;;;;;;3.58;0.98;;;18.30;93.70;;;;;;5061542;28;20036;-83
2022/09/16 11:26:58;;;;;;;6.13;1.48;;;18.40;94.40;;;;;;5047148;28;20515;-81
2022/09/16 11:29:51;;;;;;;5.30;1.05;;;18.40;94.00;;;;;;5033892;28;20041;-82
2022/09/16 11:32:53;;;;;;;6.25;2.33;;;18.40;94.00;;;;;;5048145;28;20033;-81
2022/09/16 11:35:31;;;;;;;5.85;2.00;;;18.50;93.30;;;;;;5043300;28;20048;-81
2022/09/16 11:38:25;;;;;;;6.38;1.98;;;18.70;92.80;;;;;;5053496;28;20068;-80
2022/09/16 11:41:26;;;;;;;6.60;1.92;;;18.80;92.80;;;;;;5019664;28;20037;-79
2022/09/16 11:44:14;;;;;;;3.72;1.00;;;19.40;91.00;;;;;;5054038;28;20049;-81
2022/09/16 11:47:09;;;;;;;5.18;1.10;;;19.40;91.20;;;;;;5073022;28;20031;-88
2022/09/16 11:49:53;;;;;;;3.83;0.80;;;19.80;90.90;;;;;;5062629;28;20025;-84
2022/09/16 11:52:40;;;;;;;3.88;1.60;;;20.00;89.80;;;;;;5067606;28;20162;-83
2022/09/16 11:55:35;;;;;;;6.35;1.50;;;20.20;89.10;;;;;;5046466;28;20043;-83
2022/09/16 11:58:25;;;;;;;3.95;1.08;;;20.20;89.40;;;;;;5063834;28;20040;-86
2022/09/16 12:00:56;;;;;;;3.25;1.08;;;20.50;87.80;;;;;;5050010;28;20036;-84
2022/09/16 12:03:41;;;;;;;5.13;1.02;;;20.10;88.10;;;;;;5055405;28;20029;-82
2022/09/16 12:06:12;;;;;;;4.70;1.10;;;20.50;87.40;;;;;;5062336;28;20117;-82
2022/09/16 12:08:59;;;;;;;2.95;1.08;;;20.50;87.20;;;;;;5052716;28;20070;-83
2022/09/16 12:11:36;;;;;;;2.75;0.95;;;20.20;88.10;;;;;;5070366;28;20024;-81
2022/09/16 12:14:15;;;;;;;6.35;1.25;;;19.90;88.40;;;;;;5054288;28;20032;-83
2022/09/16 12:16:54;;;;;;;3.13;0.82;;;19.90;88.80;;;;;;5048698;28;20028;-82
2022/09/16 12:19:35;;;;;;;3.35;1.15;;;19.70;89.00;;;;;;5054423;28;20097;-80
2022/09/16 12:22:04;;;;;;;4.82;1.05;;;19.50;90.10;;;;;;5059574;28;20028;-82
2022/09/16 12:24:45;;;;;;;2.63;0.93;;;19.40;90.60;;;;;;5072205;28;22297;-82
2022/09/16 12:27:26;;;;;;;3.05;1.00;;;19.30;90.80;;;;;;5057382;28;20360;-83
2022/09/16 12:30:01;;;;;;;4.30;0.95;;;19.20;91.00;;;;;;5051964;28;20078;-85
2022/09/16 12:32:46;;;;;;;3.08;1.27;;;19.20;91.20;;;;;;5051280;28;20028;-80
2022/09/16 12:35:16;;;;;;;3.38;1.10;;;19.10;91.20;;;;;;5077870;28;20024;-82
2022/09/16 12:37:50;;;;;;;2.60;0.90;;;19.10;91.50;;;;;;5061597;28;20054;-81
2022/09/16 12:40:23;;;;;;;5.07;1.83;;;19.10;91.60;;;;;;5054803;28;20480;-82
2022/09/16 12:43:20;;;;;;;3.67;1.05;;;19.30;91.50;;;;;;5078374;28;20036;-84
2022/09/16 12:46:03;;;;;;;6.07;0.90;;;19.40;90.80;;;;;;5078049;28;20025;-84
2022/09/16 12:48:34;;;;;;;5.15;1.08;;;19.50;90.70;;;;;;5060012;28;20040;-81
2022/09/16 12:51:00;;;;;;;2.42;1.00;;;19.50;90.70;;;;;;5079364;28;20028;-82
2022/09/16 12:53:45;;;;;;;2.90;0.90;;;19.70;88.60;;;;;;5065133;28;20043;-80
2022/09/16 12:56:39;;;;;;;4.40;1.20;;;19.70;89.00;;;;;;5059473;28;20020;-84
2022/09/16 12:59:11;;;;;;;2.88;0.95;;;19.80;89.00;;;;;;5077902;28;20596;-81
2022/09/16 13:01:41;;;;;;;3.80;0.95;;;19.80;89.50;;;;;;5079943;28;20028;-81
2022/09/16 13:04:20;;;;;;;2.58;0.95;;;19.80;90.10;;;;;;5061255;28;20066;-81
2022/09/16 13:06:51;;;;;;;2.90;0.73;;;19.90;89.30;;;;;;5076890;28;20028;-82
2022/09/16 13:09:31;;;;;;;4.45;0.98;;;20.00;89.10;;;;;;5056859;28;20024;-84
2022/09/16 13:12:00;;;;;;;3.35;1.35;;;20.10;88.80;;;;;;5079592;28;20031;-84
2022/09/16 13:14:59;;;;;;;4.70;1.13;;;20.00;88.30;;;;;;5061426;28;20107;-82
2022/09/16 13:17:36;;;;;;;4.22;0.80;;;20.20;87.90;;;;;;5058733;28;20391;-82
2022/09/16 13:20:22;;;;;;;2.95;0.85;;;20.20;88.70;;;;;;5077895;28;20486;-83
2022/09/16 13:23:05;;;;;;;1.40;0.70;;;20.40;85.80;;;;;;5072065;28;20375;-81
2022/09/16 13:25:43;;;;;;;3.65;0.90;;;20.40;84.60;;;;;;5060329;28;20035;-82
2022/09/16 13:28:36;;;;;;;2.92;0.88;;;20.40;84.00;;;;;;5069075;28;20025;-84